Time;durP1;ratioP1;P1;durP2;ratioP2;P2;SDS_P1;SDS_P2;PMS_P1;PMS_P2;Temp;Humidity;BMP_temperature;BMP_pressure;BME280_temperature;BME280_humidity;BME280_pressure;Samples;Min_cycle;Max_cycle;Signal;HPM_P1;HPM_P2
2022/09/14 00:03:04;;;;;;;6.43;2.70;;;20.50;99.90;;;;;;10543491;28;20048;-77
2022/09/14 00:08:07;;;;;;;6.10;2.28;;;20.50;99.90;;;;;;10528259;28;20051;-76
2022/09/14 00:13:11;;;;;;;5.32;1.98;;;20.50;99.90;;;;;;10542610;28;20048;-77
2022/09/14 00:18:13;;;;;;;5.78;2.25;;;20.40;99.90;;;;;;10538176;28;20075;-76
2022/09/14 00:23:16;;;;;;;6.40;2.13;;;20.30;99.90;;;;;;10500122;28;20094;-77
2022/09/14 00:28:18;;;;;;;3.30;1.90;;;20.40;99.90;;;;;;10528575;28;20048;-76
2022/09/14 00:33:20;;;;;;;6.93;2.13;;;20.40;99.90;;;;;;10539174;28;20041;-76
2022/09/14 00:38:26;;;;;;;5.15;1.88;;;20.40;99.90;;;;;;10540501;28;20059;-76
2022/09/14 00:43:28;;;;;;;3.83;2.05;;;20.40;99.90;;;;;;10540668;28;20044;-76
2022/09/14 00:48:30;;;;;;;5.15;2.20;;;20.30;99.90;;;;;;10535176;28;20089;-77
2022/09/14 00:53:34;;;;;;;6.50;2.22;;;20.30;99.90;;;;;;10541446;28;20382;-76
2022/09/14 00:58:36;;;;;;;5.85;2.10;;;20.30;99.90;;;;;;10504113;28;20040;-76
2022/09/14 01:03:38;;;;;;;5.28;1.90;;;20.30;99.90;;;;;;10515408;28;20059;-77
2022/09/14 01:09:04;;;;;;;6.15;2.22;;;20.20;99.90;;;;;;10498092;28;20055;-76
2022/09/14 01:14:21;;;;;;;6.82;2.50;;;20.20;99.90;;;;;;10527997;28;20501;-77
2022/09/14 01:19:42;;;;;;;4.03;2.25;;;20.10;99.90;;;;;;10502738;28;20448;-77
2022/09/14 01:24:49;;;;;;;4.55;2.10;;;20.20;99.90;;;;;;10497328;28;20433;-78
2022/09/14 01:30:03;;;;;;;8.43;2.70;;;20.00;99.90;;;;;;10497696;28;20052;-77
2022/09/14 01:35:12;;;;;;;6.40;2.60;;;19.70;99.90;;;;;;10497583;28;20040;-77
2022/09/14 01:40:20;;;;;;;6.30;2.80;;;19.70;99.90;;;;;;10504470;28;20071;-76
2022/09/14 01:45:26;;;;;;;7.45;3.08;;;19.60;99.90;;;;;;10510744;28;20047;-77
2022/09/14 01:50:34;;;;;;;5.68;3.00;;;19.40;99.90;;;;;;10497621;28;20383;-77
2022/09/14 01:55:43;;;;;;;7.33;2.70;;;19.50;99.90;;;;;;10497388;28;20063;-77
2022/09/14 02:00:49;;;;;;;6.38;3.00;;;19.60;99.90;;;;;;10502772;28;20310;-77
2022/09/14 02:05:59;;;;;;;7.40;2.90;;;19.50;99.90;;;;;;10538849;28;20101;-77
2022/09/14 02:11:02;;;;;;;5.88;3.30;;;19.50;99.90;;;;;;10522963;28;20507;-77
2022/09/14 02:16:05;;;;;;;6.35;2.90;;;19.60;99.90;;;;;;10536009;28;20048;-77
2022/09/14 02:21:14;;;;;;;6.47;2.88;;;19.50;99.90;;;;;;10520605;28;20044;-78
2022/09/14 02:26:17;;;;;;;7.07;3.00;;;19.60;99.90;;;;;;10535023;28;20068;-77
2022/09/14 02:31:33;;;;;;;6.35;3.00;;;19.60;99.90;;;;;;10521097;28;20515;-77
2022/09/14 02:36:48;;;;;;;5.55;3.20;;;19.40;99.90;;;;;;10528566;28;20082;-77
2022/09/14 02:41:58;;;;;;;5.95;3.20;;;19.40;99.90;;;;;;10504371;28;20533;-77
2022/09/14 02:47:09;;;;;;;6.97;3.10;;;19.40;99.90;;;;;;10504871;28;20049;-77
2022/09/14 02:52:18;;;;;;;8.63;3.10;;;19.50;99.90;;;;;;10511877;28;20048;-77
2022/09/14 02:57:20;;;;;;;;;;;19.60;99.90;;;;;;10546846;28;20086;-77
2022/09/14 03:02:23;;;;;;;6.03;2.80;;;19.60;99.90;;;;;;10541394;28;19920;-77
2022/09/14 03:07:25;;;;;;;7.80;3.10;;;19.70;99.90;;;;;;10511517;28;20071;-77
2022/09/14 03:12:27;;;;;;;6.63;3.42;;;19.70;99.90;;;;;;10509043;28;20047;-78
2022/09/14 03:17:31;;;;;;;6.82;3.28;;;19.60;99.90;;;;;;10543801;28;20108;-77
2022/09/14 03:22:33;;;;;;;6.00;3.22;;;19.60;99.90;;;;;;10521676;28;20052;-77
2022/09/14 03:27:35;;;;;;;6.25;3.22;;;19.70;99.90;;;;;;10503226;28;20103;-77
2022/09/14 03:32:38;;;;;;;6.82;3.45;;;19.70;99.90;;;;;;10503806;28;20075;-77
2022/09/14 03:37:42;;;;;;;8.05;3.80;;;19.70;99.90;;;;;;10544314;28;20059;-77
2022/09/14 03:42:45;;;;;;;7.85;4.10;;;19.50;99.90;;;;;;10522259;28;20055;-78
2022/09/14 03:47:49;;;;;;;5.13;3.20;;;19.60;99.90;;;;;;10500801;28;20510;-77
2022/09/14 03:52:51;;;;;;;6.15;4.00;;;19.60;99.90;;;;;;10502029;28;20048;-77
2022/09/14 03:57:54;;;;;;;7.35;3.85;;;19.70;99.90;;;;;;10541947;28;20402;-77
2022/09/14 04:03:00;;;;;;;6.75;3.33;;;19.60;99.90;;;;;;10510079;28;20055;-77
2022/09/14 04:08:02;;;;;;;6.97;3.70;;;19.60;99.90;;;;;;10531445;28;20521;-77
2022/09/14 04:13:04;;;;;;;5.82;3.10;;;19.60;99.90;;;;;;10531618;28;20044;-77
2022/09/14 04:18:08;;;;;;;5.30;2.92;;;19.60;99.90;;;;;;10506953;28;20041;-77
2022/09/14 04:23:11;;;;;;;6.60;3.00;;;19.60;99.90;;;;;;10499823;28;20053;-77
2022/09/14 04:28:13;;;;;;;6.28;3.10;;;19.70;99.90;;;;;;10504797;28;20052;-77
2022/09/14 04:33:16;;;;;;;7.00;3.38;;;19.70;99.90;;;;;;10507955;28;20422;-76
2022/09/14 04:38:18;;;;;;;6.85;3.33;;;19.70;99.90;;;;;;10542584;28;20048;-76
2022/09/14 04:43:20;;;;;;;7.90;3.45;;;19.70;99.90;;;;;;10538615;28;20044;-76
2022/09/14 04:48:23;;;;;;;5.47;3.20;;;19.60;99.90;;;;;;10533997;28;20048;-76
2022/09/14 04:53:25;;;;;;;5.05;3.40;;;19.60;99.90;;;;;;10541384;28;20532;-76
2022/09/14 04:58:28;;;;;;;6.93;3.30;;;19.50;99.90;;;;;;10498315;28;20537;-77
2022/09/14 05:03:31;;;;;;;5.65;3.03;;;19.60;99.90;;;;;;10497423;28;20086;-78
2022/09/14 05:08:35;;;;;;;6.00;3.20;;;19.60;99.90;;;;;;10510640;28;20045;-78
2022/09/14 05:13:37;;;;;;;7.57;3.45;;;19.50;99.90;;;;;;10528600;28;20135;-78
2022/09/14 05:18:40;;;;;;;7.35;3.50;;;19.50;99.90;;;;;;10501568;28;20044;-77
2022/09/14 05:23:43;;;;;;;7.97;3.38;;;19.50;99.90;;;;;;10506845;28;20090;-77
2022/09/14 05:28:51;;;;;;;5.60;3.60;;;19.50;99.90;;;;;;10497676;28;20044;-76
2022/09/14 05:33:56;;;;;;;5.68;3.25;;;19.50;99.90;;;;;;10489729;28;20095;-77
2022/09/14 05:38:58;;;;;;;6.07;3.17;;;19.50;99.90;;;;;;10482166;28;20109;-76
2022/09/14 05:44:00;;;;;;;6.53;3.50;;;19.50;99.90;;;;;;10497439;28;20883;-77
2022/09/14 05:49:03;;;;;;;6.07;3.67;;;19.60;99.90;;;;;;10475554;28;20049;-77
2022/09/14 05:54:10;;;;;;;6.70;3.78;;;19.60;99.90;;;;;;10499884;28;20044;-77
2022/09/14 05:59:12;;;;;;;7.05;3.80;;;19.60;99.90;;;;;;10528171;28;20227;-77
2022/09/14 06:04:16;;;;;;;6.10;3.40;;;19.60;99.90;;;;;;10505375;28;20044;-76
2022/09/14 06:09:18;;;;;;;7.32;3.53;;;19.60;99.90;;;;;;10498056;28;20067;-77
2022/09/14 06:14:20;;;;;;;8.25;3.60;;;19.70;99.90;;;;;;10495368;28;20052;-77
2022/09/14 06:19:24;;;;;;;7.30;3.80;;;19.60;99.90;;;;;;10511109;28;20044;-77
2022/09/14 06:24:26;;;;;;;8.70;3.78;;;19.60;99.90;;;;;;10500606;28;20113;-77
2022/09/14 06:29:28;;;;;;;11.00;4.00;;;19.70;99.90;;;;;;10525973;28;20072;-77
2022/09/14 06:34:31;;;;;;;9.40;3.70;;;19.80;99.90;;;;;;10512538;28;20051;-77
2022/09/14 06:39:33;;;;;;;6.72;3.92;;;19.80;99.90;;;;;;10509023;28;20494;-77
2022/09/14 06:44:35;;;;;;;6.13;3.72;;;19.80;99.90;;;;;;10527355;28;20393;-77
2022/09/14 06:49:39;;;;;;;7.55;3.80;;;19.80;99.90;;;;;;10532507;28;20044;-79
2022/09/14 06:54:41;;;;;;;7.53;3.50;;;19.80;99.90;;;;;;10504768;28;20101;-78
2022/09/14 06:59:43;;;;;;;6.00;3.13;;;19.90;99.90;;;;;;10527199;28;20063;-79
2022/09/14 07:04:46;;;;;;;6.82;3.30;;;19.90;99.90;;;;;;10498655;28;20487;-78
2022/09/14 07:09:48;;;;;;;9.50;3.33;;;20.10;99.90;;;;;;10518726;28;20102;-78
2022/09/14 07:14:50;;;;;;;8.35;3.33;;;20.20;99.90;;;;;;10514621;28;20052;-78
2022/09/14 07:19:54;;;;;;;6.18;3.50;;;20.20;99.90;;;;;;10513711;28;20074;-78
2022/09/14 07:24:56;;;;;;;6.80;3.25;;;20.30;99.90;;;;;;10505781;28;20048;-78
2022/09/14 07:29:58;;;;;;;6.28;3.28;;;20.30;99.90;;;;;;10501841;28;20049;-78
2022/09/14 07:35:01;;;;;;;6.85;3.28;;;20.40;99.90;;;;;;10491953;28;20055;-78
2022/09/14 07:40:03;;;;;;;7.05;3.50;;;20.50;99.90;;;;;;10520310;28;20059;-79
2022/09/14 07:45:07;;;;;;;5.43;2.95;;;20.60;99.90;;;;;;10503111;28;20052;-78
2022/09/14 07:50:10;;;;;;;7.53;3.88;;;20.70;99.90;;;;;;10503981;28;20486;-79
2022/09/14 07:55:12;;;;;;;8.35;4.05;;;20.80;99.90;;;;;;10502505;28;20044;-78
2022/09/14 08:00:16;;;;;;;6.22;3.10;;;20.90;99.90;;;;;;10501645;28;20122;-76
2022/09/14 08:05:20;;;;;;;6.55;3.10;;;21.00;99.90;;;;;;10501464;28;20372;-78
2022/09/14 08:10:22;;;;;;;6.00;3.30;;;21.20;99.90;;;;;;10534897;28;20133;-78
2022/09/14 08:15:24;;;;;;;4.88;2.80;;;21.30;99.90;;;;;;10504184;28;20056;-78
2022/09/14 08:20:28;;;;;;;5.68;3.17;;;21.40;99.90;;;;;;10511947;28;20489;-77
2022/09/14 08:25:30;;;;;;;4.72;2.90;;;21.50;99.90;;;;;;10523191;28;20056;-76
2022/09/14 08:30:33;;;;;;;6.07;3.10;;;21.60;99.90;;;;;;10515918;28;20055;-75
2022/09/14 08:35:42;;;;;;;5.78;2.80;;;21.70;99.90;;;;;;10536873;28;20044;-75
2022/09/14 08:40:46;;;;;;;5.38;2.80;;;21.80;99.90;;;;;;10506213;28;20049;-75
2022/09/14 08:45:49;;;;;;;6.38;3.08;;;22.00;99.90;;;;;;10503844;28;20051;-75
2022/09/14 08:50:53;;;;;;;5.88;2.72;;;22.00;99.90;;;;;;10521389;28;20064;-76
2022/09/14 08:56:01;;;;;;;6.82;2.60;;;22.10;99.90;;;;;;10502959;28;20803;-76
2022/09/14 09:01:14;;;;;;;6.93;2.58;;;22.10;99.90;;;;;;10511870;28;20056;-77
2022/09/14 09:06:24;;;;;;;5.72;2.80;;;22.20;99.90;;;;;;10506655;28;20041;-78
2022/09/14 09:11:34;;;;;;;4.25;2.60;;;22.40;99.90;;;;;;10504976;28;20048;-78
2022/09/14 09:16:38;;;;;;;5.55;2.33;;;22.50;99.90;;;;;;10503118;28;20501;-78
2022/09/14 09:21:46;;;;;;;11.82;6.85;;;22.70;99.90;;;;;;10500962;28;20051;-79
2022/09/14 09:26:49;;;;;;;5.35;2.50;;;22.70;99.90;;;;;;10502705;28;20089;-78
2022/09/14 09:31:55;;;;;;;6.50;2.53;;;22.80;99.90;;;;;;10501717;28;20091;-82
2022/09/14 09:36:59;;;;;;;7.13;2.83;;;22.90;99.90;;;;;;10533152;28;20048;-77
2022/09/14 09:42:07;;;;;;;5.55;2.63;;;23.00;99.90;;;;;;10505266;28;20547;-79
2022/09/14 09:47:09;;;;;;;6.43;2.50;;;23.20;99.90;;;;;;10532968;28;20067;-78
2022/09/14 09:52:15;;;;;;;7.15;2.30;;;23.30;99.90;;;;;;10531928;28;20518;-78
2022/09/14 09:57:23;;;;;;;4.88;2.33;;;23.40;99.90;;;;;;10478020;28;20045;-78
2022/09/14 10:02:29;;;;;;;6.43;2.53;;;23.60;99.90;;;;;;10496738;28;20048;-79
2022/09/14 10:07:39;;;;;;;7.83;3.23;;;23.70;99.90;;;;;;10496601;28;20486;-79
2022/09/14 10:12:49;;;;;;;6.70;2.60;;;23.90;99.90;;;;;;10497182;28;20048;-79
2022/09/14 10:18:08;;;;;;;7.88;2.42;;;24.20;99.90;;;;;;10497037;28;20045;-79
2022/09/14 10:23:25;;;;;;;7.63;2.50;;;24.30;99.90;;;;;;10496907;28;20048;-79
2022/09/14 10:28:29;;;;;;;6.43;2.38;;;24.40;99.90;;;;;;10497339;28;20044;-79
2022/09/14 10:33:31;;;;;;;5.45;2.10;;;24.40;99.90;;;;;;10495870;28;20048;-80
2022/09/14 10:38:41;;;;;;;4.75;2.38;;;24.50;99.90;;;;;;10495988;28;20045;-80
2022/09/14 10:44:18;;;;;;;5.50;2.30;;;24.50;99.90;;;;;;10496080;28;20040;-80
2022/09/14 10:49:36;;;;;;;6.30;2.22;;;24.60;99.90;;;;;;10490604;28;20079;-79
2022/09/14 10:55:23;;;;;;;5.03;2.10;;;24.70;99.90;;;;;;10496591;28;20053;-80
2022/09/14 11:00:26;;;;;;;7.20;2.20;;;24.70;99.90;;;;;;10504053;28;20106;-79
2022/09/14 11:05:33;;;;;;;5.53;2.30;;;24.70;99.90;;;;;;10504589;28;20158;-79
2022/09/14 11:10:50;;;;;;;4.63;2.10;;;24.80;99.90;;;;;;10532515;28;20052;-76
2022/09/14 11:16:00;;;;;;;6.47;2.30;;;24.90;99.90;;;;;;10503358;28;20071;-76
2022/09/14 11:21:16;;;;;;;6.00;2.13;;;25.00;99.90;;;;;;10526890;28;20477;-76
2022/09/14 11:26:30;;;;;;;5.82;2.20;;;25.00;99.90;;;;;;10543551;28;20486;-78
2022/09/14 11:31:37;;;;;;;5.57;2.20;;;25.00;99.90;;;;;;10507006;28;20761;-76
2022/09/14 11:36:44;;;;;;;7.03;1.80;;;25.00;99.90;;;;;;10496967;28;20045;-75
2022/09/14 11:41:54;;;;;;;5.50;1.65;;;25.00;99.40;;;;;;10518821;28;20546;-75
2022/09/14 11:47:03;;;;;;;4.53;1.70;;;25.00;98.90;;;;;;10499726;28;20052;-75
2022/09/14 11:52:13;;;;;;;5.60;1.70;;;25.00;98.00;;;;;;10519464;28;20048;-80
2022/09/14 11:57:19;;;;;;;5.90;1.77;;;25.10;98.00;;;;;;10518032;28;20437;-81
2022/09/14 12:03:01;;;;;;;6.15;1.75;;;25.10;97.50;;;;;;10505831;28;20499;-80
2022/09/14 12:08:43;;;;;;;5.07;1.67;;;25.10;97.50;;;;;;10520340;28;20051;-79
2022/09/14 12:13:46;;;;;;;5.53;1.88;;;25.10;97.40;;;;;;10504655;28;20055;-79
2022/09/14 12:18:56;;;;;;;5.03;1.67;;;25.20;97.70;;;;;;10503900;28;20390;-79
2022/09/14 12:23:58;;;;;;;3.65;1.50;;;25.20;97.20;;;;;;10506031;28;20052;-79
2022/09/14 12:29:32;;;;;;;6.32;1.90;;;25.10;97.30;;;;;;10496424;28;20056;-80
2022/09/14 12:34:35;;;;;;;6.70;2.10;;;25.00;98.10;;;;;;10537495;28;20151;-82
2022/09/14 12:39:37;;;;;;;5.00;1.90;;;24.90;98.90;;;;;;10536772;28;20059;-81
2022/09/14 12:44:42;;;;;;;4.95;2.08;;;24.80;99.50;;;;;;10535826;28;20203;-79
2022/09/14 12:49:44;;;;;;;6.38;2.00;;;24.60;99.10;;;;;;10536272;28;20048;-79
2022/09/14 12:55:03;;;;;;;5.30;1.88;;;24.40;99.00;;;;;;10535870;28;20052;-78
2022/09/14 13:00:13;;;;;;;6.95;2.00;;;24.20;99.60;;;;;;10522449;28;20459;-78
2022/09/14 13:05:19;;;;;;;6.47;2.05;;;24.00;99.90;;;;;;10493543;28;20052;-78
2022/09/14 13:10:27;;;;;;;6.35;1.92;;;23.80;99.90;;;;;;10492609;28;20499;-77
2022/09/14 13:15:35;;;;;;;5.90;2.20;;;23.60;99.90;;;;;;10491289;28;20131;-75
2022/09/14 13:20:37;;;;;;;;;;;23.40;99.90;;;;;;10491577;28;20088;-75
2022/09/14 13:25:39;;;;;;;5.55;2.00;;;23.20;99.90;;;;;;10492806;28;19920;-75
2022/09/14 13:30:43;;;;;;;4.43;1.98;;;23.10;99.90;;;;;;10491116;28;20490;-79
2022/09/14 13:35:49;;;;;;;6.45;1.85;;;22.80;99.90;;;;;;10491973;28;20044;-78
2022/09/14 13:40:55;;;;;;;4.15;1.80;;;22.80;99.90;;;;;;10492398;28;20064;-76
2022/09/14 13:45:59;;;;;;;6.15;2.10;;;22.50;99.90;;;;;;10492168;28;20052;-79
2022/09/14 13:51:01;;;;;;;5.50;1.80;;;22.50;99.90;;;;;;10522722;28;20055;-77
2022/09/14 13:56:18;;;;;;;4.07;1.73;;;22.30;99.90;;;;;;10514415;28;20041;-83
2022/09/14 14:02:46;;;;;;;6.63;2.60;;;22.40;99.90;;;;;;10520483;27;20409;-79
2022/09/14 14:07:48;;;;;;;7.88;1.92;;;22.30;99.90;;;;;;10483544;28;20093;-79
2022/09/14 14:12:50;;;;;;;17.13;9.65;;;22.30;99.90;;;;;;10486359;28;20056;-75
2022/09/14 14:17:54;;;;;;;3.95;1.30;;;22.30;99.90;;;;;;10478800;28;20041;-76
2022/09/14 14:22:59;;;;;;;4.55;1.50;;;22.30;99.90;;;;;;10485277;28;20049;-76
2022/09/14 14:28:04;;;;;;;5.05;1.30;;;22.10;99.90;;;;;;10484595;28;20147;-76
2022/09/14 14:33:12;;;;;;;3.25;1.00;;;22.10;99.90;;;;;;10484584;28;20059;-76
2022/09/14 14:38:15;;;;;;;4.55;2.20;;;22.10;99.90;;;;;;10483064;28;20049;-76
2022/09/14 14:43:20;;;;;;;2.28;0.93;;;22.00;99.90;;;;;;10484092;28;20053;-76
2022/09/14 14:48:23;;;;;;;4.65;1.13;;;21.90;99.90;;;;;;10501660;28;20048;-77
2022/09/14 14:53:26;;;;;;;3.50;1.00;;;21.80;99.90;;;;;;10516303;28;20123;-76
2022/09/14 14:58:31;;;;;;;2.92;1.08;;;21.70;99.90;;;;;;10478925;28;20061;-76
2022/09/14 15:03:35;;;;;;;3.38;1.00;;;21.60;99.90;;;;;;10481354;28;20044;-78
2022/09/14 15:08:37;;;;;;;3.15;1.05;;;21.40;99.90;;;;;;10478477;28;20080;-77
2022/09/14 15:13:39;;;;;;;3.50;0.90;;;21.30;99.90;;;;;;10442449;28;20056;-78
2022/09/14 15:18:43;;;;;;;1.77;0.70;;;21.20;99.90;;;;;;10436567;28;20048;-77
2022/09/14 15:23:45;;;;;;;3.33;0.90;;;21.10;99.90;;;;;;10448452;28;20581;-75
2022/09/14 15:28:48;;;;;;;7.22;2.72;;;21.20;99.90;;;;;;10455550;28;20056;-75
2022/09/14 15:33:51;;;;;;;2.17;0.80;;;21.20;99.90;;;;;;10453448;28;20056;-78
2022/09/14 15:38:53;;;;;;;2.17;0.80;;;21.20;99.90;;;;;;10454335;28;20060;-76
2022/09/14 15:43:55;;;;;;;4.63;0.85;;;22.60;99.90;;;;;;10450488;28;20048;-77
2022/09/14 15:49:04;;;;;;;1.92;0.75;;;23.60;99.90;;;;;;10451655;28;20048;-78
2022/09/14 15:54:06;;;;;;;2.33;0.70;;;24.40;99.90;;;;;;10452839;28;20059;-78
2022/09/14 15:59:08;;;;;;;3.17;0.75;;;24.60;98.00;;;;;;10450273;28;20064;-77
2022/09/14 16:04:12;;;;;;;2.65;0.80;;;25.30;96.70;;;;;;10454162;28;20052;-76
2022/09/14 16:09:16;;;;;;;2.00;0.80;;;25.40;95.60;;;;;;10451488;28;20056;-76
2022/09/14 16:14:18;;;;;;;2.83;0.80;;;24.80;95.80;;;;;;10452687;28;20057;-77
2022/09/14 16:19:22;;;;;;;2.65;0.80;;;25.40;95.20;;;;;;10450928;28;20087;-77
2022/09/14 16:24:25;;;;;;;1.48;0.65;;;26.40;93.60;;;;;;10452269;28;20049;-77
2022/09/14 16:29:27;;;;;;;5.97;2.42;;;27.00;92.20;;;;;;10450950;28;20067;-76
2022/09/14 16:34:31;;;;;;;3.50;1.00;;;26.30;91.80;;;;;;10452143;28;20049;-76
2022/09/14 16:39:33;;;;;;;2.95;0.70;;;26.30;92.20;;;;;;10451089;28;20072;-76
2022/09/14 16:44:35;;;;;;;3.50;1.00;;;26.70;91.20;;;;;;10453111;28;20060;-77
2022/09/14 16:49:39;;;;;;;4.88;2.20;;;26.00;92.10;;;;;;10451001;28;20503;-76
2022/09/14 16:54:41;;;;;;;2.78;1.00;;;26.30;91.80;;;;;;10449988;28;20049;-78
2022/09/14 16:59:43;;;;;;;6.13;1.10;;;25.50;92.60;;;;;;10448326;28;20075;-77
2022/09/14 17:04:46;;;;;;;4.20;1.00;;;24.90;93.60;;;;;;10451752;28;20056;-77
2022/09/14 17:09:48;;;;;;;3.50;1.00;;;24.40;94.70;;;;;;10449284;28;20057;-77
2022/09/14 17:14:50;;;;;;;4.22;1.13;;;23.90;95.60;;;;;;10448475;28;20110;-77
2022/09/14 17:19:54;;;;;;;3.10;1.10;;;23.60;96.50;;;;;;10449954;28;20045;-78
2022/09/14 17:24:56;;;;;;;3.10;1.00;;;23.30;97.20;;;;;;10446155;28;20445;-78
2022/09/14 17:29:58;;;;;;;3.88;1.40;;;23.10;97.80;;;;;;10437761;28;20067;-78
2022/09/14 17:35:01;;;;;;;3.60;0.90;;;22.80;98.60;;;;;;10441512;28;20053;-78
2022/09/14 17:40:05;;;;;;;2.42;0.80;;;22.60;99.20;;;;;;10427068;28;21180;-78
2022/09/14 17:45:09;;;;;;;5.07;1.02;;;22.30;99.90;;;;;;10446475;28;20045;-77
2022/09/14 17:50:12;;;;;;;2.05;0.90;;;22.10;99.90;;;;;;10467118;28;20052;-78
2022/09/14 17:55:14;;;;;;;3.17;1.20;;;22.00;99.90;;;;;;10441412;28;20060;-77
2022/09/14 18:00:17;;;;;;;4.40;1.20;;;21.80;99.90;;;;;;10419240;28;20068;-77
2022/09/14 18:05:20;;;;;;;4.40;1.10;;;21.60;99.90;;;;;;10446684;28;20053;-77
2022/09/14 18:10:22;;;;;;;3.72;1.10;;;21.50;99.90;;;;;;10449722;28;20049;-77
2022/09/14 18:15:24;;;;;;;3.90;1.30;;;21.40;99.90;;;;;;10438281;28;20147;-77
2022/09/14 18:20:29;;;;;;;4.63;1.10;;;21.40;99.90;;;;;;10426941;28;20512;-77
2022/09/14 18:25:31;;;;;;;4.72;1.10;;;21.30;99.90;;;;;;10430008;28;20521;-78
2022/09/14 18:30:33;;;;;;;2.70;1.20;;;21.30;99.90;;;;;;10433939;28;20048;-77
2022/09/14 18:35:38;;;;;;;4.20;1.20;;;21.20;99.90;;;;;;10436323;28;20044;-77
2022/09/14 18:40:40;;;;;;;3.97;1.10;;;21.20;99.90;;;;;;10439441;28;20053;-78
2022/09/14 18:45:43;;;;;;;4.30;2.03;;;21.20;99.90;;;;;;10447764;28;20055;-77
2022/09/14 18:50:46;;;;;;;6.13;1.20;;;21.10;99.90;;;;;;10447933;28;20433;-78
2022/09/14 18:55:48;;;;;;;3.50;1.10;;;21.10;99.90;;;;;;10445162;28;20275;-78
2022/09/14 19:00:50;;;;;;;3.42;1.10;;;21.00;99.90;;;;;;10438387;28;20068;-78
2022/09/14 19:05:54;;;;;;;3.63;1.10;;;20.90;99.90;;;;;;10456355;28;20083;-77
2022/09/14 19:10:57;;;;;;;3.50;1.30;;;20.90;99.90;;;;;;10455911;28;20059;-78
2022/09/14 19:15:59;;;;;;;28.75;13.25;;;20.70;99.90;;;;;;10446752;28;20052;-77
2022/09/14 19:21:06;;;;;;;7.10;2.25;;;20.70;99.90;;;;;;10454746;28;20056;-77
2022/09/14 19:26:11;;;;;;;4.87;1.30;;;20.70;99.90;;;;;;10441101;28;20061;-76
2022/09/14 19:31:16;;;;;;;4.13;1.50;;;20.60;99.90;;;;;;10439921;28;20064;-77
2022/09/14 19:36:22;;;;;;;2.40;1.17;;;20.60;99.90;;;;;;10448608;28;20053;-78
2022/09/14 19:41:25;;;;;;;4.32;1.05;;;20.50;99.90;;;;;;10431666;28;20072;-76
2022/09/14 19:46:28;;;;;;;4.40;1.25;;;20.50;99.90;;;;;;10450535;28;20053;-77
2022/09/14 19:51:31;;;;;;;4.80;1.30;;;20.50;99.90;;;;;;10434138;28;20743;-76
2022/09/14 19:56:33;;;;;;;4.60;1.40;;;20.40;99.90;;;;;;10438787;28;20691;-77
2022/09/14 20:01:37;;;;;;;3.10;1.20;;;20.40;99.90;;;;;;10441936;28;20060;-77
2022/09/14 20:06:43;;;;;;;3.78;1.27;;;20.30;99.90;;;;;;10448630;28;20061;-77
2022/09/14 20:11:48;;;;;;;3.50;1.30;;;20.20;99.90;;;;;;10452248;28;20057;-77
2022/09/14 20:16:53;;;;;;;3.00;1.20;;;20.30;99.90;;;;;;10446256;28;20037;-77
2022/09/14 20:21:57;;;;;;;4.15;1.42;;;20.20;99.90;;;;;;10444519;28;20056;-78
2022/09/14 20:27:00;;;;;;;3.35;1.40;;;20.20;99.90;;;;;;10449766;28;20053;-79
2022/09/14 20:32:04;;;;;;;5.40;1.40;;;20.20;99.90;;;;;;10448750;28;20132;-79
2022/09/14 20:37:08;;;;;;;5.05;1.40;;;20.20;99.90;;;;;;10443564;28;20056;-79
2022/09/14 20:42:10;;;;;;;4.90;1.38;;;20.20;99.90;;;;;;10437533;28;20502;-77
2022/09/14 20:47:12;;;;;;;2.72;1.20;;;20.30;99.90;;;;;;10440182;28;21919;-78
2022/09/14 20:52:15;;;;;;;4.07;1.48;;;20.30;99.90;;;;;;10437196;28;20052;-77
2022/09/14 20:57:17;;;;;;;3.53;1.20;;;20.30;99.90;;;;;;10449292;28;20318;-77
2022/09/14 21:02:19;;;;;;;3.03;1.38;;;20.30;99.90;;;;;;10448410;28;20061;-78
2022/09/14 21:07:22;;;;;;;3.70;1.45;;;20.20;99.90;;;;;;10438407;28;20060;-79
2022/09/14 21:12:24;;;;;;;6.22;1.55;;;20.10;99.90;;;;;;10445676;28;20469;-77
2022/09/14 21:17:26;;;;;;;3.92;1.67;;;20.10;99.90;;;;;;10444192;28;20461;-78
2022/09/14 21:22:30;;;;;;;3.83;1.42;;;20.00;99.90;;;;;;10445847;28;20474;-78
2022/09/14 21:27:32;;;;;;;3.10;1.10;;;20.00;99.90;;;;;;10449691;28;20491;-79
2022/09/14 21:32:34;;;;;;;6.70;1.40;;;20.00;99.90;;;;;;10438546;28;20067;-79
2022/09/14 21:37:38;;;;;;;4.40;1.40;;;19.90;99.90;;;;;;10445740;28;20041;-79
2022/09/14 21:42:39;;;;;;;3.30;1.30;;;20.00;99.90;;;;;;10433607;28;20131;-78
2022/09/14 21:47:41;;;;;;;4.38;1.50;;;20.00;99.90;;;;;;10434599;28;20131;-79
2022/09/14 21:52:45;;;;;;;4.85;1.38;;;19.90;99.90;;;;;;10443371;28;20075;-81
2022/09/14 21:57:49;;;;;;;4.32;1.45;;;19.80;99.90;;;;;;10448299;28;20052;-78
2022/09/14 22:02:51;;;;;;;3.90;1.52;;;19.80;99.90;;;;;;10437371;28;20136;-78
2022/09/14 22:07:54;;;;;;;5.82;1.35;;;19.70;99.90;;;;;;10434879;28;20064;-78
2022/09/14 22:12:56;;;;;;;3.65;1.25;;;19.70;99.90;;;;;;10437558;28;20641;-78
2022/09/14 22:17:58;;;;;;;4.32;1.48;;;19.80;99.90;;;;;;10447641;28;20415;-78
2022/09/14 22:23:02;;;;;;;3.65;1.50;;;19.80;99.90;;;;;;10444769;28;20495;-78
2022/09/14 22:28:04;;;;;;;3.55;1.40;;;19.80;99.90;;;;;;10456919;28;20049;-79
2022/09/14 22:33:06;;;;;;;4.13;1.50;;;19.80;99.90;;;;;;10453014;28;20060;-78
2022/09/14 22:38:09;;;;;;;4.05;1.65;;;19.70;99.90;;;;;;10441427;28;20041;-77
2022/09/14 22:43:11;;;;;;;4.53;1.38;;;19.70;99.90;;;;;;10444804;28;20513;-77
2022/09/14 22:48:13;;;;;;;8.05;1.70;;;19.60;99.90;;;;;;10441029;28;21611;-77
2022/09/14 22:53:18;;;;;;;6.82;1.48;;;19.60;99.90;;;;;;10443682;28;20052;-78
2022/09/14 22:58:23;;;;;;;5.03;1.55;;;19.60;99.90;;;;;;10453461;28;20061;-77
2022/09/14 23:03:26;;;;;;;4.65;1.60;;;19.50;99.90;;;;;;10454376;28;20797;-77
2022/09/14 23:08:30;;;;;;;3.90;1.40;;;19.50;99.90;;;;;;10457263;28;20422;-78
2022/09/14 23:13:35;;;;;;;8.07;1.80;;;19.50;99.90;;;;;;10455517;28;20076;-78
2022/09/14 23:18:37;;;;;;;5.47;1.70;;;19.50;99.90;;;;;;10462075;28;20053;-78
2022/09/14 23:23:40;;;;;;;5.68;1.42;;;19.40;99.90;;;;;;10457002;28;20044;-78
2022/09/14 23:28:42;;;;;;;4.05;1.40;;;19.40;99.90;;;;;;10445553;28;20123;-78
2022/09/14 23:33:48;;;;;;;3.70;1.60;;;19.30;99.90;;;;;;10452587;28;20056;-79
2022/09/14 23:38:52;;;;;;;5.93;1.83;;;19.20;99.90;;;;;;10460712;28;20072;-79
2022/09/14 23:43:54;;;;;;;4.65;1.88;;;19.20;99.90;;;;;;10463451;28;20430;-79
2022/09/14 23:48:56;;;;;;;5.82;1.80;;;19.20;99.90;;;;;;10445557;28;20053;-79
2022/09/14 23:53:59;;;;;;;7.07;1.83;;;19.10;99.90;;;;;;10459979;28;20056;-78
2022/09/14 23:59:01;;;;;;;3.92;2.00;;;19.00;99.90;;;;;;10460305;28;20064;-77
